sensor_id;sensor_type;location;lat;lon;timestamp;pressure;altitude;pressure_sealevel;temperature;humidity
45275;BME280;31019;43.780;25.948;2023-02-03T00:00:02;101256.69;;;0.47;100.00
45275;BME280;31019;43.780;25.948;2023-02-03T00:02:29;101262.84;;;0.66;100.00
45275;BME280;31019;43.780;25.948;2023-02-03T00:04:57;101273.72;;;0.83;100.00
45275;BME280;31019;43.780;25.948;2023-02-03T00:07:24;101267.56;;;0.73;100.00
45275;BME280;31019;43.780;25.948;2023-02-03T00:09:51;101250.53;;;0.99;100.00
45275;BME280;31019;43.780;25.948;2023-02-03T00:12:17;101262.22;;;0.74;100.00
45275;BME280;31019;43.780;25.948;2023-02-03T00:14:44;101255.53;;;0.81;100.00
45275;BME280;31019;43.780;25.948;2023-02-03T00:17:11;101260.59;;;0.73;100.00
45275;BME280;31019;43.780;25.948;2023-02-03T00:19:39;101253.09;;;0.89;100.00
45275;BME280;31019;43.780;25.948;2023-02-03T00:22:07;101254.38;;;0.95;100.00
45275;BME280;31019;43.780;25.948;2023-02-03T00:24:34;101251.78;;;1.05;100.00
45275;BME280;31019;43.780;25.948;2023-02-03T00:27:00;101261.28;;;0.54;100.00
45275;BME280;31019;43.780;25.948;2023-02-03T00:29:27;101266.06;;;0.91;100.00
45275;BME280;31019;43.780;25.948;2023-02-03T00:31:54;101281.03;;;0.68;100.00
45275;BME280;31019;43.780;25.948;2023-02-03T00:34:27;101282.28;;;0.85;100.00
45275;BME280;31019;43.780;25.948;2023-02-03T00:36:53;101289.53;;;1.12;100.00
45275;BME280;31019;43.780;25.948;2023-02-03T00:39:22;101304.25;;;0.61;100.00
45275;BME280;31019;43.780;25.948;2023-02-03T00:41:48;101298.34;;;0.80;100.00
45275;BME280;31019;43.780;25.948;2023-02-03T00:44:15;101285.00;;;0.83;100.00
45275;BME280;31019;43.780;25.948;2023-02-03T00:46:42;101287.09;;;1.20;100.00
45275;BME280;31019;43.780;25.948;2023-02-03T00:49:08;101279.03;;;1.02;100.00
45275;BME280;31019;43.780;25.948;2023-02-03T00:51:35;101286.97;;;0.91;100.00
45275;BME280;31019;43.780;25.948;2023-02-03T00:54:02;101275.84;;;0.99;100.00
45275;BME280;31019;43.780;25.948;2023-02-03T00:56:30;101277.47;;;0.69;100.00
45275;BME280;31019;43.780;25.948;2023-02-03T00:58:57;101287.53;;;1.16;100.00
45275;BME280;31019;43.780;25.948;2023-02-03T01:01:23;101294.06;;;1.31;100.00
45275;BME280;31019;43.780;25.948;2023-02-03T01:03:53;101294.34;;;1.07;100.00
45275;BME280;31019;43.780;25.948;2023-02-03T01:06:20;101286.59;;;1.26;100.00
45275;BME280;31019;43.780;25.948;2023-02-03T01:08:48;101291.38;;;1.52;100.00
45275;BME280;31019;43.780;25.948;2023-02-03T01:11:16;101273.09;;;1.21;100.00
45275;BME280;31019;43.780;25.948;2023-02-03T01:13:45;101294.00;;;1.52;100.00
45275;BME280;31019;43.780;25.948;2023-02-03T01:16:16;101282.56;;;1.63;100.00
45275;BME280;31019;43.780;25.948;2023-02-03T01:18:43;101280.19;;;1.40;100.00
45275;BME280;31019;43.780;25.948;2023-02-03T01:21:12;101282.97;;;1.18;100.00
45275;BME280;31019;43.780;25.948;2023-02-03T01:23:39;101288.41;;;1.35;100.00
45275;BME280;31019;43.780;25.948;2023-02-03T01:26:08;101291.56;;;0.99;100.00
45275;BME280;31019;43.780;25.948;2023-02-03T01:28:36;101290.53;;;0.90;100.00
45275;BME280;31019;43.780;25.948;2023-02-03T01:31:12;101289.19;;;1.26;100.00
45275;BME280;31019;43.780;25.948;2023-02-03T01:33:40;101295.72;;;1.32;100.00
45275;BME280;31019;43.780;25.948;2023-02-03T01:36:10;101295.28;;;1.06;100.00
45275;BME280;31019;43.780;25.948;2023-02-03T01:38:38;101291.56;;;0.99;100.00
45275;BME280;31019;43.780;25.948;2023-02-03T01:41:08;101286.31;;;0.99;100.00
45275;BME280;31019;43.780;25.948;2023-02-03T01:43:37;101288.06;;;0.88;100.00
45275;BME280;31019;43.780;25.948;2023-02-03T01:46:12;101293.75;;;1.24;100.00
45275;BME280;31019;43.780;25.948;2023-02-03T01:48:45;101294.56;;;0.94;100.00
45275;BME280;31019;43.780;25.948;2023-02-03T01:51:12;101293.28;;;0.88;100.00
45275;BME280;31019;43.780;25.948;2023-02-03T01:53:39;101312.13;;;0.82;100.00
45275;BME280;31019;43.780;25.948;2023-02-03T01:56:07;101310.56;;;1.01;100.00
45275;BME280;31019;43.780;25.948;2023-02-03T01:58:36;101305.69;;;1.17;100.00
45275;BME280;31019;43.780;25.948;2023-02-03T02:01:05;101309.56;;;0.92;100.00
45275;BME280;31019;43.780;25.948;2023-02-03T02:03:35;101306.53;;;0.97;100.00
45275;BME280;31019;43.780;25.948;2023-02-03T02:06:06;101318.47;;;1.10;100.00
45275;BME280;31019;43.780;25.948;2023-02-03T02:08:34;101320.72;;;0.94;100.00
45275;BME280;31019;43.780;25.948;2023-02-03T02:11:02;101311.59;;;1.09;100.00
45275;BME280;31019;43.780;25.948;2023-02-03T02:13:31;101310.31;;;1.75;100.00
45275;BME280;31019;43.780;25.948;2023-02-03T02:16:05;101308.44;;;1.16;100.00
45275;BME280;31019;43.780;25.948;2023-02-03T02:18:51;101319.22;;;1.22;100.00
45275;BME280;31019;43.780;25.948;2023-02-03T02:24:42;101316.56;;;0.91;100.00
45275;BME280;31019;43.780;25.948;2023-02-03T02:27:27;101321.94;;;1.21;100.00
45275;BME280;31019;43.780;25.948;2023-02-03T02:30:17;101321.28;;;0.98;100.00
45275;BME280;31019;43.780;25.948;2023-02-03T02:33:01;101321.09;;;0.89;100.00
45275;BME280;31019;43.780;25.948;2023-02-03T02:35:39;101325.03;;;1.26;100.00
45275;BME280;31019;43.780;25.948;2023-02-03T02:38:14;101327.28;;;1.09;100.00
45275;BME280;31019;43.780;25.948;2023-02-03T02:40:49;101328.84;;;0.91;100.00
45275;BME280;31019;43.780;25.948;2023-02-03T02:43:20;101332.28;;;0.91;100.00
45275;BME280;31019;43.780;25.948;2023-02-03T02:45:49;101327.16;;;0.90;100.00
45275;BME280;31019;43.780;25.948;2023-02-03T02:48:25;101333.28;;;0.79;100.00
45275;BME280;31019;43.780;25.948;2023-02-03T02:50:54;101335.00;;;0.90;100.00
45275;BME280;31019;43.780;25.948;2023-02-03T02:53:24;101338.94;;;1.26;100.00
45275;BME280;31019;43.780;25.948;2023-02-03T02:55:52;101333.59;;;1.07;100.00
45275;BME280;31019;43.780;25.948;2023-02-03T02:58:22;101345.00;;;1.06;100.00
45275;BME280;31019;43.780;25.948;2023-02-03T03:00:50;101343.03;;;0.98;100.00
45275;BME280;31019;43.780;25.948;2023-02-03T03:03:18;101346.44;;;1.10;100.00
45275;BME280;31019;43.780;25.948;2023-02-03T03:05:51;101339.22;;;1.02;100.00
45275;BME280;31019;43.780;25.948;2023-02-03T03:08:21;101331.59;;;1.51;100.00
45275;BME280;31019;43.780;25.948;2023-02-03T03:10:52;101329.38;;;1.16;100.00
45275;BME280;31019;43.780;25.948;2023-02-03T03:13:24;101332.59;;;1.59;100.00
45275;BME280;31019;43.780;25.948;2023-02-03T03:15:53;101339.44;;;1.20;100.00
45275;BME280;31019;43.780;25.948;2023-02-03T03:18:23;101340.19;;;1.63;100.00
45275;BME280;31019;43.780;25.948;2023-02-03T03:20:54;101330.94;;;1.58;100.00
45275;BME280;31019;43.780;25.948;2023-02-03T03:23:26;101334.31;;;1.40;100.00
45275;BME280;31019;43.780;25.948;2023-02-03T03:25:59;101342.69;;;1.64;100.00
45275;BME280;31019;43.780;25.948;2023-02-03T03:28:35;101349.53;;;1.55;100.00
45275;BME280;31019;43.780;25.948;2023-02-03T03:31:03;101356.69;;;1.23;100.00
45275;BME280;31019;43.780;25.948;2023-02-03T03:33:30;101359.63;;;1.08;100.00
45275;BME280;31019;43.780;25.948;2023-02-03T03:36:02;101354.22;;;1.00;100.00
45275;BME280;31019;43.780;25.948;2023-02-03T03:38:35;101364.63;;;1.42;100.00
45275;BME280;31019;43.780;25.948;2023-02-03T03:41:07;101375.78;;;1.13;100.00
45275;BME280;31019;43.780;25.948;2023-02-03T03:43:42;101373.00;;;1.36;100.00
45275;BME280;31019;43.780;25.948;2023-02-03T03:46:12;101373.19;;;1.75;100.00
45275;BME280;31019;43.780;25.948;2023-02-03T03:48:41;101379.84;;;2.48;100.00
45275;BME280;31019;43.780;25.948;2023-02-03T03:51:17;101376.00;;;1.52;100.00
45275;BME280;31019;43.780;25.948;2023-02-03T03:53:46;101380.69;;;1.28;100.00
45275;BME280;31019;43.780;25.948;2023-02-03T03:56:19;101376.53;;;1.87;100.00
45275;BME280;31019;43.780;25.948;2023-02-03T03:58:49;101377.00;;;1.61;100.00
45275;BME280;31019;43.780;25.948;2023-02-03T04:01:19;101375.84;;;1.54;100.00
45275;BME280;31019;43.780;25.948;2023-02-03T04:03:48;101387.13;;;1.24;100.00
45275;BME280;31019;43.780;25.948;2023-02-03T04:06:19;101386.38;;;1.64;100.00
45275;BME280;31019;43.780;25.948;2023-02-03T04:08:45;101374.38;;;1.30;100.00
45275;BME280;31019;43.780;25.948;2023-02-03T04:11:12;101380.94;;;1.86;100.00
45275;BME280;31019;43.780;25.948;2023-02-03T04:13:59;101395.72;;;1.35;100.00
45275;BME280;31019;43.780;25.948;2023-02-03T04:16:26;101390.19;;;1.29;100.00
45275;BME280;31019;43.780;25.948;2023-02-03T04:18:53;101395.38;;;1.19;100.00
45275;BME280;31019;43.780;25.948;2023-02-03T04:21:21;101382.69;;;1.45;100.00
45275;BME280;31019;43.780;25.948;2023-02-03T04:23:48;101384.47;;;1.45;100.00
45275;BME280;31019;43.780;25.948;2023-02-03T04:26:15;101384.69;;;1.93;100.00
45275;BME280;31019;43.780;25.948;2023-02-03T04:28:42;101389.56;;;1.67;100.00
45275;BME280;31019;43.780;25.948;2023-02-03T04:31:09;101405.06;;;1.28;100.00
45275;BME280;31019;43.780;25.948;2023-02-03T04:33:36;101402.63;;;1.57;100.00
45275;BME280;31019;43.780;25.948;2023-02-03T04:36:03;101403.28;;;1.29;100.00
45275;BME280;31019;43.780;25.948;2023-02-03T04:38:31;101400.53;;;1.82;100.00
45275;BME280;31019;43.780;25.948;2023-02-03T04:40:58;101404.59;;;1.44;100.00
45275;BME280;31019;43.780;25.948;2023-02-03T04:43:25;101396.44;;;1.37;100.00
45275;BME280;31019;43.780;25.948;2023-02-03T04:45:52;101399.63;;;1.20;100.00
45275;BME280;31019;43.780;25.948;2023-02-03T04:48:19;101411.84;;;1.31;100.00
45275;BME280;31019;43.780;25.948;2023-02-03T04:50:46;101407.41;;;1.52;100.00
45275;BME280;31019;43.780;25.948;2023-02-03T04:53:12;101414.03;;;1.87;100.00
45275;BME280;31019;43.780;25.948;2023-02-03T04:55:40;101412.44;;;1.65;100.00
45275;BME280;31019;43.780;25.948;2023-02-03T04:58:07;101410.59;;;1.56;100.00
45275;BME280;31019;43.780;25.948;2023-02-03T05:00:34;101420.31;;;1.44;100.00
45275;BME280;31019;43.780;25.948;2023-02-03T05:03:01;101430.16;;;1.52;100.00
45275;BME280;31019;43.780;25.948;2023-02-03T05:05:27;101427.53;;;1.82;100.00
45275;BME280;31019;43.780;25.948;2023-02-03T05:07:54;101424.72;;;1.44;100.00
45275;BME280;31019;43.780;25.948;2023-02-03T05:10:21;101425.47;;;2.26;100.00
45275;BME280;31019;43.780;25.948;2023-02-03T05:12:49;101429.63;;;1.89;100.00
45275;BME280;31019;43.780;25.948;2023-02-03T05:15:16;101438.03;;;1.82;100.00
45275;BME280;31019;43.780;25.948;2023-02-03T05:17:43;101438.50;;;1.67;100.00
45275;BME280;31019;43.780;25.948;2023-02-03T05:20:10;101430.06;;;1.42;100.00
45275;BME280;31019;43.780;25.948;2023-02-03T05:22:37;101444.63;;;1.35;100.00
45275;BME280;31019;43.780;25.948;2023-02-03T05:25:04;101451.63;;;1.76;100.00
45275;BME280;31019;43.780;25.948;2023-02-03T05:27:31;101440.22;;;1.87;100.00
45275;BME280;31019;43.780;25.948;2023-02-03T05:29:59;101452.50;;;1.35;100.00
45275;BME280;31019;43.780;25.948;2023-02-03T05:32:26;101448.16;;;1.97;100.00
45275;BME280;31019;43.780;25.948;2023-02-03T05:34:53;101459.31;;;1.26;100.00
45275;BME280;31019;43.780;25.948;2023-02-03T05:37:19;101471.78;;;1.34;100.00
45275;BME280;31019;43.780;25.948;2023-02-03T05:39:46;101473.38;;;1.46;100.00
45275;BME280;31019;43.780;25.948;2023-02-03T05:42:13;101481.19;;;1.36;100.00
45275;BME280;31019;43.780;25.948;2023-02-03T05:44:38;101468.19;;;1.56;100.00
45275;BME280;31019;43.780;25.948;2023-02-03T05:47:11;101468.47;;;1.32;100.00
45275;BME280;31019;43.780;25.948;2023-02-03T05:49:39;101472.19;;;1.81;100.00
45275;BME280;31019;43.780;25.948;2023-02-03T05:52:05;101487.53;;;1.86;100.00
45275;BME280;31019;43.780;25.948;2023-02-03T05:54:32;101483.38;;;2.14;100.00
45275;BME280;31019;43.780;25.948;2023-02-03T05:56:59;101475.75;;;1.49;100.00
45275;BME280;31019;43.780;25.948;2023-02-03T05:59:25;101476.00;;;1.67;100.00
45275;BME280;31019;43.780;25.948;2023-02-03T06:01:52;101489.91;;;1.47;100.00
45275;BME280;31019;43.780;25.948;2023-02-03T06:04:20;101488.44;;;1.54;100.00
45275;BME280;31019;43.780;25.948;2023-02-03T06:06:47;101495.78;;;1.60;100.00
45275;BME280;31019;43.780;25.948;2023-02-03T06:09:14;101499.69;;;1.66;100.00
45275;BME280;31019;43.780;25.948;2023-02-03T06:11:40;101494.78;;;1.51;100.00
45275;BME280;31019;43.780;25.948;2023-02-03T06:14:08;101495.25;;;1.66;100.00
45275;BME280;31019;43.780;25.948;2023-02-03T06:16:34;101504.41;;;1.72;100.00
45275;BME280;31019;43.780;25.948;2023-02-03T06:19:01;101504.03;;;1.76;100.00
45275;BME280;31019;43.780;25.948;2023-02-03T06:21:29;101505.06;;;1.64;100.00
45275;BME280;31019;43.780;25.948;2023-02-03T06:23:56;101510.47;;;1.72;100.00
45275;BME280;31019;43.780;25.948;2023-02-03T06:26:23;101509.59;;;1.62;100.00
45275;BME280;31019;43.780;25.948;2023-02-03T06:28:49;101515.94;;;1.90;100.00
45275;BME280;31019;43.780;25.948;2023-02-03T06:31:16;101523.19;;;2.38;100.00
45275;BME280;31019;43.780;25.948;2023-02-03T06:33:43;101522.25;;;2.09;100.00
45275;BME280;31019;43.780;25.948;2023-02-03T06:36:10;101526.19;;;2.74;100.00
45275;BME280;31019;43.780;25.948;2023-02-03T06:38:38;101534.28;;;1.90;100.00
45275;BME280;31019;43.780;25.948;2023-02-03T06:41:04;101532.91;;;2.17;100.00
45275;BME280;31019;43.780;25.948;2023-02-03T06:43:31;101524.56;;;2.02;100.00
45275;BME280;31019;43.780;25.948;2023-02-03T06:45:59;101539.13;;;2.16;100.00
45275;BME280;31019;43.780;25.948;2023-02-03T06:48:26;101544.31;;;2.37;100.00
45275;BME280;31019;43.780;25.948;2023-02-03T06:50:53;101543.75;;;1.81;100.00
45275;BME280;31019;43.780;25.948;2023-02-03T06:53:20;101543.59;;;2.04;100.00
45275;BME280;31019;43.780;25.948;2023-02-03T06:55:48;101539.94;;;2.57;100.00
45275;BME280;31019;43.780;25.948;2023-02-03T06:58:15;101547.78;;;1.86;100.00
45275;BME280;31019;43.780;25.948;2023-02-03T07:00:41;101547.56;;;1.98;100.00
45275;BME280;31019;43.780;25.948;2023-02-03T07:03:08;101555.63;;;2.78;100.00
45275;BME280;31019;43.780;25.948;2023-02-03T07:05:35;101558.00;;;2.40;100.00
45275;BME280;31019;43.780;25.948;2023-02-03T07:08:02;101548.50;;;1.88;100.00
45275;BME280;31019;43.780;25.948;2023-02-03T07:10:28;101560.56;;;2.00;100.00
45275;BME280;31019;43.780;25.948;2023-02-03T07:13:02;101574.63;;;2.29;100.00
45275;BME280;31019;43.780;25.948;2023-02-03T07:15:29;101575.97;;;2.24;100.00
45275;BME280;31019;43.780;25.948;2023-02-03T07:17:55;101571.22;;;2.08;100.00
45275;BME280;31019;43.780;25.948;2023-02-03T07:20:24;101578.94;;;2.31;100.00
45275;BME280;31019;43.780;25.948;2023-02-03T07:22:53;101577.91;;;2.22;100.00
45275;BME280;31019;43.780;25.948;2023-02-03T07:25:21;101580.66;;;1.99;100.00
45275;BME280;31019;43.780;25.948;2023-02-03T07:27:48;101580.75;;;2.09;100.00
45275;BME280;31019;43.780;25.948;2023-02-03T07:30:17;101589.56;;;2.39;100.00
45275;BME280;31019;43.780;25.948;2023-02-03T07:32:47;101585.06;;;2.50;100.00
45275;BME280;31019;43.780;25.948;2023-02-03T07:35:15;101595.47;;;2.62;100.00
45275;BME280;31019;43.780;25.948;2023-02-03T07:37:42;101595.22;;;2.74;100.00
45275;BME280;31019;43.780;25.948;2023-02-03T07:43:32;101585.22;;;1.97;100.00
45275;BME280;31019;43.780;25.948;2023-02-03T07:45:59;101596.59;;;2.08;100.00
45275;BME280;31019;43.780;25.948;2023-02-03T07:48:26;101583.34;;;2.30;100.00
45275;BME280;31019;43.780;25.948;2023-02-03T07:50:53;101601.00;;;3.09;100.00
45275;BME280;31019;43.780;25.948;2023-02-03T07:53:21;101606.25;;;3.96;100.00
45275;BME280;31019;43.780;25.948;2023-02-03T07:55:47;101618.00;;;4.11;100.00
45275;BME280;31019;43.780;25.948;2023-02-03T07:58:14;101604.31;;;3.98;100.00
45275;BME280;31019;43.780;25.948;2023-02-03T08:00:42;101599.53;;;3.55;100.00
45275;BME280;31019;43.780;25.948;2023-02-03T08:03:09;101601.59;;;3.71;100.00
45275;BME280;31019;43.780;25.948;2023-02-03T08:05:36;101609.75;;;3.67;100.00
45275;BME280;31019;43.780;25.948;2023-02-03T08:10:42;101613.75;;;3.62;100.00
45275;BME280;31019;43.780;25.948;2023-02-03T08:13:09;101621.50;;;3.63;100.00
45275;BME280;31019;43.780;25.948;2023-02-03T08:15:36;101629.38;;;3.44;100.00
45275;BME280;31019;43.780;25.948;2023-02-03T08:18:03;101646.06;;;4.11;100.00
45275;BME280;31019;43.780;25.948;2023-02-03T08:24:00;101625.06;;;4.01;100.00
45275;BME280;31019;43.780;25.948;2023-02-03T08:26:27;101637.94;;;3.95;100.00
45275;BME280;31019;43.780;25.948;2023-02-03T08:28:53;101641.69;;;3.92;100.00
45275;BME280;31019;43.780;25.948;2023-02-03T08:31:20;101645.38;;;4.19;100.00
45275;BME280;31019;43.780;25.948;2023-02-03T08:33:47;101639.47;;;3.39;100.00
45275;BME280;31019;43.780;25.948;2023-02-03T08:36:14;101644.28;;;3.24;100.00
45275;BME280;31019;43.780;25.948;2023-02-03T08:38:40;101630.34;;;3.72;100.00
45275;BME280;31019;43.780;25.948;2023-02-03T08:41:10;101635.53;;;3.14;100.00
45275;BME280;31019;43.780;25.948;2023-02-03T08:43:37;101628.53;;;3.92;100.00
45275;BME280;31019;43.780;25.948;2023-02-03T08:46:04;101621.47;;;3.54;100.00
45275;BME280;31019;43.780;25.948;2023-02-03T08:48:31;101627.03;;;3.80;100.00
45275;BME280;31019;43.780;25.948;2023-02-03T08:50:58;101622.06;;;3.67;100.00
45275;BME280;31019;43.780;25.948;2023-02-03T08:53:25;101635.97;;;4.16;100.00
45275;BME280;31019;43.780;25.948;2023-02-03T08:55:52;101632.09;;;4.10;100.00
45275;BME280;31019;43.780;25.948;2023-02-03T08:58:20;101634.06;;;3.99;100.00
45275;BME280;31019;43.780;25.948;2023-02-03T09:00:47;101646.53;;;4.63;100.00
45275;BME280;31019;43.780;25.948;2023-02-03T09:03:14;101650.38;;;3.93;100.00
45275;BME280;31019;43.780;25.948;2023-02-03T09:05:41;101650.84;;;4.54;100.00
45275;BME280;31019;43.780;25.948;2023-02-03T09:08:07;101667.50;;;4.26;100.00
45275;BME280;31019;43.780;25.948;2023-02-03T09:10:35;101661.00;;;4.30;100.00
45275;BME280;31019;43.780;25.948;2023-02-03T09:13:01;101662.91;;;4.38;100.00
45275;BME280;31019;43.780;25.948;2023-02-03T09:15:30;101668.56;;;4.52;100.00
45275;BME280;31019;43.780;25.948;2023-02-03T09:17:56;101678.69;;;4.38;100.00
45275;BME280;31019;43.780;25.948;2023-02-03T09:20:23;101675.28;;;4.08;100.00
45275;BME280;31019;43.780;25.948;2023-02-03T09:22:50;101669.91;;;4.00;100.00
45275;BME280;31019;43.780;25.948;2023-02-03T09:25:19;101671.69;;;3.80;100.00
45275;BME280;31019;43.780;25.948;2023-02-03T09:27:46;101674.59;;;4.16;100.00
45275;BME280;31019;43.780;25.948;2023-02-03T09:30:13;101675.41;;;4.26;100.00
45275;BME280;31019;43.780;25.948;2023-02-03T09:32:41;101686.25;;;4.70;100.00
45275;BME280;31019;43.780;25.948;2023-02-03T09:35:08;101667.31;;;4.84;100.00
45275;BME280;31019;43.780;25.948;2023-02-03T09:37:35;101674.84;;;5.07;100.00
45275;BME280;31019;43.780;25.948;2023-02-03T09:40:02;101671.69;;;5.31;100.00
45275;BME280;31019;43.780;25.948;2023-02-03T09:42:50;101667.34;;;5.12;100.00
45275;BME280;31019;43.780;25.948;2023-02-03T09:45:23;101652.72;;;4.99;100.00
45275;BME280;31019;43.780;25.948;2023-02-03T09:47:56;101660.28;;;5.12;100.00
45275;BME280;31019;43.780;25.948;2023-02-03T09:50:26;101657.13;;;4.99;100.00
45275;BME280;31019;43.780;25.948;2023-02-03T09:52:55;101660.72;;;5.08;100.00
45275;BME280;31019;43.780;25.948;2023-02-03T09:55:27;101654.09;;;5.03;100.00
45275;BME280;31019;43.780;25.948;2023-02-03T09:58:01;101654.25;;;5.20;100.00
45275;BME280;31019;43.780;25.948;2023-02-03T10:00:31;101657.78;;;5.11;100.00
45275;BME280;31019;43.780;25.948;2023-02-03T10:03:06;101662.97;;;5.20;100.00
45275;BME280;31019;43.780;25.948;2023-02-03T10:05:50;101659.22;;;5.23;100.00
45275;BME280;31019;43.780;25.948;2023-02-03T10:08:28;101650.06;;;5.27;100.00
45275;BME280;31019;43.780;25.948;2023-02-03T10:11:09;101655.72;;;5.32;100.00
45275;BME280;31019;43.780;25.948;2023-02-03T10:13:46;101663.91;;;5.29;100.00
45275;BME280;31019;43.780;25.948;2023-02-03T10:16:25;101656.25;;;5.08;100.00
45275;BME280;31019;43.780;25.948;2023-02-03T10:18:58;101657.97;;;5.27;100.00
45275;BME280;31019;43.780;25.948;2023-02-03T10:21:34;101653.00;;;5.24;100.00
45275;BME280;31019;43.780;25.948;2023-02-03T10:24:03;101645.41;;;5.21;100.00
45275;BME280;31019;43.780;25.948;2023-02-03T10:26:31;101640.78;;;5.23;100.00
45275;BME280;31019;43.780;25.948;2023-02-03T10:29:02;101633.69;;;5.33;100.00
45275;BME280;31019;43.780;25.948;2023-02-03T10:31:34;101639.28;;;5.20;100.00
45275;BME280;31019;43.780;25.948;2023-02-03T10:34:09;101631.69;;;5.35;100.00
45275;BME280;31019;43.780;25.948;2023-02-03T10:36:50;101645.53;;;5.19;100.00
45275;BME280;31019;43.780;25.948;2023-02-03T10:39:26;101635.41;;;5.60;100.00
45275;BME280;31019;43.780;25.948;2023-02-03T10:41:55;101625.63;;;6.67;100.00
45275;BME280;31019;43.780;25.948;2023-02-03T10:44:26;101627.88;;;6.87;100.00
45275;BME280;31019;43.780;25.948;2023-02-03T10:46:55;101623.22;;;8.14;100.00
45275;BME280;31019;43.780;25.948;2023-02-03T10:49:25;101624.19;;;7.47;100.00
45275;BME280;31019;43.780;25.948;2023-02-03T10:51:55;101618.13;;;8.68;100.00
45275;BME280;31019;43.780;25.948;2023-02-03T10:54:29;101623.03;;;9.18;100.00
45275;BME280;31019;43.780;25.948;2023-02-03T10:57:02;101619.72;;;8.85;100.00
45275;BME280;31019;43.780;25.948;2023-02-03T10:59:32;101608.97;;;9.18;100.00
45275;BME280;31019;43.780;25.948;2023-02-03T11:02:06;101606.31;;;8.31;100.00
45275;BME280;31019;43.780;25.948;2023-02-03T11:04:36;101611.47;;;8.16;100.00
45275;BME280;31019;43.780;25.948;2023-02-03T11:07:04;101600.59;;;7.62;100.00
45275;BME280;31019;43.780;25.948;2023-02-03T11:09:33;101610.31;;;8.11;100.00
45275;BME280;31019;43.780;25.948;2023-02-03T11:12:06;101599.84;;;8.34;100.00
45275;BME280;31019;43.780;25.948;2023-02-03T11:14:36;101598.88;;;8.43;100.00
45275;BME280;31019;43.780;25.948;2023-02-03T11:17:06;101596.09;;;7.38;100.00
45275;BME280;31019;43.780;25.948;2023-02-03T11:19:37;101598.88;;;8.43;100.00
45275;BME280;31019;43.780;25.948;2023-02-03T11:22:05;101596.41;;;10.78;100.00
45275;BME280;31019;43.780;25.948;2023-02-03T11:24:36;101587.28;;;9.98;100.00
45275;BME280;31019;43.780;25.948;2023-02-03T11:27:05;101597.59;;;9.09;100.00
45275;BME280;31019;43.780;25.948;2023-02-03T11:29:33;101589.94;;;9.60;100.00
45275;BME280;31019;43.780;25.948;2023-02-03T11:32:03;101589.50;;;7.99;100.00
45275;BME280;31019;43.780;25.948;2023-02-03T11:34:35;101582.41;;;8.08;100.00
45275;BME280;31019;43.780;25.948;2023-02-03T11:37:26;101579.97;;;8.38;100.00
45275;BME280;31019;43.780;25.948;2023-02-03T11:39:55;101567.09;;;10.12;100.00
45275;BME280;31019;43.780;25.948;2023-02-03T11:42:23;101565.28;;;8.43;100.00
45275;BME280;31019;43.780;25.948;2023-02-03T11:44:50;101545.63;;;10.73;100.00
45275;BME280;31019;43.780;25.948;2023-02-03T11:47:17;101532.31;;;10.88;100.00
45275;BME280;31019;43.780;25.948;2023-02-03T11:50:06;101540.66;;;10.48;100.00
45275;BME280;31019;43.780;25.948;2023-02-03T11:55:53;101537.03;;;11.50;100.00
45275;BME280;31019;43.780;25.948;2023-02-03T11:58:54;101535.25;;;10.93;97.96
45275;BME280;31019;43.780;25.948;2023-02-03T12:01:42;101543.75;;;11.74;80.55
45275;BME280;31019;43.780;25.948;2023-02-03T12:04:40;101531.50;;;13.17;70.86
45275;BME280;31019;43.780;25.948;2023-02-03T12:07:27;101530.34;;;12.17;78.43
45275;BME280;31019;43.780;25.948;2023-02-03T12:10:01;101528.88;;;13.84;64.91
45275;BME280;31019;43.780;25.948;2023-02-03T12:12:44;101538.47;;;9.70;88.46
45275;BME280;31019;43.780;25.948;2023-02-03T12:15:23;101535.53;;;9.64;86.84
45275;BME280;31019;43.780;25.948;2023-02-03T12:18:07;101539.25;;;9.93;96.11
45275;BME280;31019;43.780;25.948;2023-02-03T12:20:43;101531.38;;;10.15;94.62
45275;BME280;31019;43.780;25.948;2023-02-03T12:23:21;101522.03;;;10.19;100.00
45275;BME280;31019;43.780;25.948;2023-02-03T12:25:59;101535.97;;;8.84;100.00
45275;BME280;31019;43.780;25.948;2023-02-03T12:28:45;101525.59;;;10.55;96.37
45275;BME280;31019;43.780;25.948;2023-02-03T12:31:19;101515.38;;;10.23;99.08
45275;BME280;31019;43.780;25.948;2023-02-03T12:33:57;101516.63;;;9.97;100.00
45275;BME280;31019;43.780;25.948;2023-02-03T12:36:28;101521.72;;;8.85;100.00
45275;BME280;31019;43.780;25.948;2023-02-03T12:39:00;101525.69;;;8.02;100.00
45275;BME280;31019;43.780;25.948;2023-02-03T12:41:33;101524.91;;;7.28;100.00
45275;BME280;31019;43.780;25.948;2023-02-03T12:44:04;101523.41;;;7.09;100.00
45275;BME280;31019;43.780;25.948;2023-02-03T12:46:36;101520.50;;;6.62;100.00
45275;BME280;31019;43.780;25.948;2023-02-03T12:49:13;101511.81;;;6.78;100.00
45275;BME280;31019;43.780;25.948;2023-02-03T12:51:45;101526.97;;;6.68;100.00
45275;BME280;31019;43.780;25.948;2023-02-03T12:54:30;101523.00;;;6.63;100.00
45275;BME280;31019;43.780;25.948;2023-02-03T12:57:16;101519.97;;;6.50;100.00
45275;BME280;31019;43.780;25.948;2023-02-03T12:59:52;101521.50;;;6.61;100.00
45275;BME280;31019;43.780;25.948;2023-02-03T13:02:25;101517.84;;;6.54;100.00
45275;BME280;31019;43.780;25.948;2023-02-03T13:04:56;101518.09;;;6.34;100.00
45275;BME280;31019;43.780;25.948;2023-02-03T13:07:31;101503.09;;;6.35;100.00
45275;BME280;31019;43.780;25.948;2023-02-03T13:10:05;101501.25;;;6.27;100.00